Time;durP1;ratioP1;P1;durP2;ratioP2;P2;SDS_P1;SDS_P2;PMS_P1;PMS_P2;Temp;Humidity;BMP_temperature;BMP_pressure;BME280_temperature;BME280_humidity;BME280_pressure;Samples;Min_cycle;Max_cycle;Signal;HPM_P1;HPM_P2
2023/06/03 00:01:57;;;;;;;12.73;4.18;;;;;;;;;;5013653;28;20215;-59
2023/06/03 00:04:22;;;;;;;9.80;4.47;;;;;;;;;;5012128;28;20220;-59
2023/06/03 00:06:48;;;;;;;9.43;4.40;;;;;;;;;;5013505;28;20220;-59
2023/06/03 00:09:13;;;;;;;9.32;4.60;;;;;;;;;;5012977;28;20228;-58
2023/06/03 00:11:39;;;;;;;8.70;4.50;;;;;;;;;;5012696;28;20322;-59
2023/06/03 00:14:05;;;;;;;8.38;4.30;;;;;;;;;;5012969;28;20216;-59
2023/06/03 00:16:32;;;;;;;10.63;4.50;;;;;;;;;;5013377;28;20200;-59
2023/06/03 00:18:57;;;;;;;7.97;4.30;;;;;;;;;;5012467;28;20288;-59
2023/06/03 00:21:23;;;;;;;8.98;4.60;;;;;;;;;;5012573;28;20295;-59
2023/06/03 00:23:49;;;;;;;9.48;4.38;;;;;;;;;;5013188;28;20217;-59
2023/06/03 00:26:14;;;;;;;9.38;4.30;;;;;;;;;;5012163;28;20212;-59
2023/06/03 00:28:39;;;;;;;7.90;3.97;;;;;;;;;;5012917;28;20589;-59
2023/06/03 00:31:05;;;;;;;9.43;4.65;;;;;;;;;;5012743;28;20216;-58
2023/06/03 00:33:31;;;;;;;7.47;4.32;;;;;;;;;;5012221;28;20216;-59
2023/06/03 00:35:56;;;;;;;9.43;4.95;;;;;;;;;;5012861;28;20212;-59
2023/06/03 00:38:21;;;;;;;10.63;4.60;;;;;;;;;;5012610;28;20247;-59
2023/06/03 00:40:46;;;;;;;13.77;4.97;;;;;;;;;;5012187;28;20212;-59
2023/06/03 00:43:12;;;;;;;9.93;4.97;;;;;;;;;;5012658;28;20212;-58
2023/06/03 00:45:37;;;;;;;9.43;4.55;;;;;;;;;;5012781;28;20213;-59
2023/06/03 00:48:02;;;;;;;9.45;4.60;;;;;;;;;;5010463;28;20322;-58
2023/06/03 00:50:28;;;;;;;7.13;4.05;;;;;;;;;;5012382;28;20220;-59
2023/06/03 00:52:53;;;;;;;9.00;4.53;;;;;;;;;;5010725;28;20208;-59
2023/06/03 00:55:18;;;;;;;7.55;4.32;;;;;;;;;;5011997;28;20220;-59
2023/06/03 00:57:44;;;;;;;9.60;4.53;;;;;;;;;;5012827;28;20230;-59
2023/06/03 01:00:09;;;;;;;11.07;4.30;;;;;;;;;;5010360;28;20311;-58
2023/06/03 01:02:36;;;;;;;8.23;4.20;;;;;;;;;;5012752;28;20215;-58
2023/06/03 01:05:03;;;;;;;9.23;4.10;;;;;;;;;;5011858;28;20242;-58
2023/06/03 01:07:36;;;;;;;11.35;4.15;;;;;;;;;;5011709;28;20214;-58
2023/06/03 01:10:01;;;;;;;8.32;4.45;;;;;;;;;;5012117;28;20283;-58
2023/06/03 01:12:42;;;;;;;10.88;4.00;;;;;;;;;;5012540;28;20208;-58
2023/06/03 01:15:14;;;;;;;6.57;3.75;;;;;;;;;;5011214;28;20355;-58
2023/06/03 01:17:45;;;;;;;7.93;3.70;;;;;;;;;;5011181;28;20211;-59
2023/06/03 01:20:10;;;;;;;7.28;4.20;;;;;;;;;;5010755;28;20220;-58
2023/06/03 01:22:40;;;;;;;9.63;4.03;;;;;;;;;;5009864;28;20683;-59
2023/06/03 01:25:08;;;;;;;9.20;4.05;;;;;;;;;;5010738;28;20220;-57
2023/06/03 01:27:36;;;;;;;8.07;3.75;;;;;;;;;;5012254;28;20671;-59
2023/06/03 01:30:02;;;;;;;7.50;3.92;;;;;;;;;;5011075;28;20216;-58
2023/06/03 01:32:28;;;;;;;8.00;4.10;;;;;;;;;;5012348;28;20735;-59
2023/06/03 01:34:53;;;;;;;7.03;3.80;;;;;;;;;;5012168;28;20299;-59
2023/06/03 01:37:18;;;;;;;8.52;3.70;;;;;;;;;;5009928;28;20248;-58
2023/06/03 01:39:44;;;;;;;8.60;3.97;;;;;;;;;;5010929;28;20292;-59
2023/06/03 01:42:10;;;;;;;9.10;4.00;;;;;;;;;;5009912;28;20241;-59
2023/06/03 01:44:35;;;;;;;6.05;3.65;;;;;;;;;;5011949;28;20200;-59
2023/06/03 01:47:01;;;;;;;8.00;4.07;;;;;;;;;;5011679;28;20254;-57
2023/06/03 01:49:26;;;;;;;6.75;3.63;;;;;;;;;;5009622;28;20659;-59
2023/06/03 01:51:51;;;;;;;5.97;3.00;;;;;;;;;;4978894;28;20576;-59
2023/06/03 01:54:18;;;;;;;8.32;3.65;;;;;;;;;;4991415;28;20216;-59
2023/06/03 01:56:43;;;;;;;8.05;3.55;;;;;;;;;;4978957;28;20224;-59
2023/06/03 01:59:08;;;;;;;6.93;3.33;;;;;;;;;;4986450;28;20221;-58
2023/06/03 02:01:36;;;;;;;8.02;3.63;;;;;;;;;;5002384;28;20220;-59
2023/06/03 02:04:01;;;;;;;7.53;3.55;;;;;;;;;;5000724;28;20212;-57
2023/06/03 02:06:26;;;;;;;6.10;3.25;;;;;;;;;;5002214;28;20216;-58
2023/06/03 02:08:52;;;;;;;7.15;3.40;;;;;;;;;;4986631;28;20233;-59
2023/06/03 02:11:17;;;;;;;6.55;3.33;;;;;;;;;;4981893;28;20219;-58
2023/06/03 02:13:42;;;;;;;7.93;3.28;;;;;;;;;;4997302;28;20208;-59
2023/06/03 02:16:07;;;;;;;5.10;3.10;;;;;;;;;;4976484;28;20271;-58
2023/06/03 02:18:34;;;;;;;6.75;3.03;;;;;;;;;;4973859;28;20588;-59
2023/06/03 02:21:00;;;;;;;7.22;3.60;;;;;;;;;;4978223;28;20279;-59
2023/06/03 02:23:26;;;;;;;6.28;3.25;;;;;;;;;;5001267;28;20752;-59
2023/06/03 02:25:51;;;;;;;6.43;3.10;;;;;;;;;;4986201;28;20300;-59
2023/06/03 02:28:16;;;;;;;6.53;2.90;;;;;;;;;;4982265;28;20241;-58
2023/06/03 02:30:42;;;;;;;8.02;3.03;;;;;;;;;;4982869;28;20239;-58
2023/06/03 02:33:07;;;;;;;6.65;3.03;;;;;;;;;;5000349;28;20216;-59
2023/06/03 02:35:32;;;;;;;7.80;3.30;;;;;;;;;;5002871;28;20216;-59
2023/06/03 02:37:58;;;;;;;5.68;3.05;;;;;;;;;;4995212;28;20715;-58
2023/06/03 02:40:23;;;;;;;6.63;3.22;;;;;;;;;;4977294;28;20236;-58
2023/06/03 02:42:48;;;;;;;4.63;2.67;;;;;;;;;;4979567;28;20893;-59
2023/06/03 02:45:13;;;;;;;5.85;2.80;;;;;;;;;;5004165;28;20224;-58
2023/06/03 02:47:39;;;;;;;7.13;2.97;;;;;;;;;;5004833;28;20219;-59
2023/06/03 02:50:05;;;;;;;7.95;3.15;;;;;;;;;;5004792;28;20673;-58
2023/06/03 02:52:33;;;;;;;6.38;3.17;;;;;;;;;;4996454;28;20217;-58
2023/06/03 02:54:58;;;;;;;5.60;3.05;;;;;;;;;;5004747;28;20610;-59
2023/06/03 02:57:24;;;;;;;5.82;3.05;;;;;;;;;;4984986;28;20213;-59
2023/06/03 02:59:49;;;;;;;6.82;3.00;;;;;;;;;;4991805;28;20639;-58
2023/06/03 03:02:16;;;;;;;6.03;3.15;;;;;;;;;;4996343;28;20512;-58
2023/06/03 03:04:42;;;;;;;6.57;2.90;;;;;;;;;;4996547;28;20241;-59
2023/06/03 03:07:08;;;;;;;7.82;2.95;;;;;;;;;;5002583;28;20221;-58
2023/06/03 03:09:34;;;;;;;4.38;2.53;;;;;;;;;;5004576;28;20228;-59
2023/06/03 03:11:59;;;;;;;11.20;3.20;;;;;;;;;;5004673;28;20299;-58
2023/06/03 03:14:24;;;;;;;6.30;2.80;;;;;;;;;;5000163;28;20243;-58
2023/06/03 03:16:50;;;;;;;6.95;3.10;;;;;;;;;;4985166;28;20680;-59
2023/06/03 03:19:15;;;;;;;6.22;3.08;;;;;;;;;;4985057;28;20220;-59
2023/06/03 03:21:41;;;;;;;4.97;2.90;;;;;;;;;;4980704;28;20212;-59
2023/06/03 03:24:06;;;;;;;7.85;3.40;;;;;;;;;;4996010;28;20479;-58
2023/06/03 03:26:32;;;;;;;7.05;3.25;;;;;;;;;;4996476;28;20757;-58
2023/06/03 03:28:57;;;;;;;5.93;2.80;;;;;;;;;;5002188;28;20236;-59
2023/06/03 03:31:23;;;;;;;7.68;2.78;;;;;;;;;;5010744;28;20274;-59
2023/06/03 03:33:49;;;;;;;4.78;2.70;;;;;;;;;;5012245;28;20263;-58
2023/06/03 03:36:23;;;;;;;6.20;2.72;;;;;;;;;;5012828;28;20212;-58
2023/06/03 03:39:02;;;;;;;7.13;2.88;;;;;;;;;;5012553;28;20553;-59
2023/06/03 03:41:28;;;;;;;6.45;2.78;;;;;;;;;;5013203;28;20363;-59
2023/06/03 03:43:53;;;;;;;6.78;2.90;;;;;;;;;;5012926;28;20696;-59
2023/06/03 03:46:18;;;;;;;5.22;2.80;;;;;;;;;;5013697;28;20247;-59
2023/06/03 03:48:45;;;;;;;6.32;2.80;;;;;;;;;;5013133;28;20228;-59
2023/06/03 03:51:11;;;;;;;7.20;2.78;;;;;;;;;;5013560;28;20208;-58
2023/06/03 03:53:36;;;;;;;6.07;2.50;;;;;;;;;;5013704;28;20216;-58
2023/06/03 03:56:01;;;;;;;5.07;2.67;;;;;;;;;;4997667;28;20279;-58
2023/06/03 03:58:27;;;;;;;4.85;2.45;;;;;;;;;;4984415;28;20217;-58
2023/06/03 04:00:53;;;;;;;4.30;2.38;;;;;;;;;;4984625;28;20227;-58
2023/06/03 04:03:19;;;;;;;5.93;2.47;;;;;;;;;;4983170;28;20425;-59
2023/06/03 04:05:45;;;;;;;8.25;2.78;;;;;;;;;;4984613;28;20240;-59
2023/06/03 04:08:12;;;;;;;5.47;2.50;;;;;;;;;;5001956;28;20275;-58
2023/06/03 04:10:38;;;;;;;6.60;2.47;;;;;;;;;;4999125;28;20220;-58
2023/06/03 04:13:05;;;;;;;5.63;2.47;;;;;;;;;;5010616;28;20673;-58
2023/06/03 04:15:31;;;;;;;5.78;2.45;;;;;;;;;;4983158;28;20224;-59
2023/06/03 04:17:56;;;;;;;6.05;2.45;;;;;;;;;;4995665;28;20950;-59
2023/06/03 04:20:31;;;;;;;5.65;2.30;;;;;;;;;;5002956;28;20219;-59
2023/06/03 04:22:56;;;;;;;7.72;2.22;;;;;;;;;;5018112;28;20285;-59
2023/06/03 04:25:23;;;;;;;6.30;2.38;;;;;;;;;;5017005;28;20212;-59
2023/06/03 04:27:48;;;;;;;4.57;2.10;;;;;;;;;;5003294;28;20319;-58
2023/06/03 04:30:14;;;;;;;9.00;2.75;;;;;;;;;;5001147;28;20315;-59
2023/06/03 04:32:39;;;;;;;8.63;2.60;;;;;;;;;;4981746;28;20649;-58
2023/06/03 04:35:04;;;;;;;6.90;2.08;;;;;;;;;;4976193;28;20646;-58
2023/06/03 04:37:31;;;;;;;7.97;2.65;;;;;;;;;;4975708;28;20219;-59
2023/06/03 04:39:58;;;;;;;4.72;2.10;;;;;;;;;;4976375;28;20382;-59
2023/06/03 04:42:26;;;;;;;4.22;2.28;;;;;;;;;;5002325;28;20303;-59
2023/06/03 04:44:51;;;;;;;7.68;2.17;;;;;;;;;;5003319;28;20208;-59
2023/06/03 04:47:17;;;;;;;5.32;2.00;;;;;;;;;;5001641;28;20702;-58
2023/06/03 04:49:42;;;;;;;4.38;2.00;;;;;;;;;;5002762;28;20228;-59
2023/06/03 04:52:11;;;;;;;6.53;2.30;;;;;;;;;;4997051;28;20209;-59
2023/06/03 04:54:36;;;;;;;5.32;2.17;;;;;;;;;;5002330;28;20770;-59
2023/06/03 04:57:02;;;;;;;5.32;2.10;;;;;;;;;;4989375;28;20212;-58
2023/06/03 04:59:27;;;;;;;4.07;1.92;;;;;;;;;;4998452;28;20492;-58
2023/06/03 05:01:52;;;;;;;3.90;2.20;;;;;;;;;;4991067;28;20217;-59
2023/06/03 05:04:22;;;;;;;5.45;1.88;;;;;;;;;;4978456;28;20279;-58
2023/06/03 05:06:48;;;;;;;6.18;2.30;;;;;;;;;;4975194;28;20209;-59
2023/06/03 05:09:14;;;;;;;3.88;1.88;;;;;;;;;;4994906;28;20225;-59
2023/06/03 05:11:39;;;;;;;5.63;2.03;;;;;;;;;;5002486;28;20218;-59
2023/06/03 05:14:06;;;;;;;5.90;1.90;;;;;;;;;;5000564;28;20224;-59
2023/06/03 05:16:31;;;;;;;4.15;1.90;;;;;;;;;;5002145;28;20216;-59
2023/06/03 05:18:56;;;;;;;3.22;1.75;;;;;;;;;;5002712;28;20212;-59
2023/06/03 05:21:22;;;;;;;4.95;1.98;;;;;;;;;;5001388;28;20219;-59
2023/06/03 05:23:47;;;;;;;6.25;2.20;;;;;;;;;;5002752;28;20212;-59
2023/06/03 05:26:12;;;;;;;4.72;1.77;;;;;;;;;;4998675;28;20212;-58
2023/06/03 05:28:37;;;;;;;4.85;1.80;;;;;;;;;;5008369;28;20224;-59
2023/06/03 05:31:03;;;;;;;5.32;1.90;;;;;;;;;;5009941;28;20212;-58
2023/06/03 05:33:31;;;;;;;5.25;1.90;;;;;;;;;;5011899;28;20228;-59
2023/06/03 05:35:57;;;;;;;3.85;1.73;;;;;;;;;;5011043;28;20208;-59
2023/06/03 05:38:22;;;;;;;4.23;2.03;;;;;;;;;;5010864;28;20506;-59
2023/06/03 05:40:48;;;;;;;5.22;2.38;;;;;;;;;;5010982;28;20208;-59
2023/06/03 05:43:13;;;;;;;9.02;1.95;;;;;;;;;;5010125;28;20423;-59
2023/06/03 05:45:38;;;;;;;2.97;1.60;;;;;;;;;;5012333;28;20275;-59
2023/06/03 05:48:04;;;;;;;5.32;1.90;;;;;;;;;;5010633;28;20224;-58
2023/06/03 05:50:29;;;;;;;4.90;1.70;;;;;;;;;;5010826;28;20216;-59
2023/06/03 05:52:55;;;;;;;5.78;1.73;;;;;;;;;;5010927;28;20800;-59
2023/06/03 05:55:20;;;;;;;4.63;1.90;;;;;;;;;;5009758;28;20223;-59
2023/06/03 05:57:46;;;;;;;5.00;2.05;;;;;;;;;;5008560;28;20266;-58
2023/06/03 06:00:11;;;;;;;6.47;1.87;;;;;;;;;;4993846;28;20433;-58
2023/06/03 06:02:37;;;;;;;5.15;1.80;;;;;;;;;;5000250;28;20220;-58
2023/06/03 06:05:03;;;;;;;4.97;1.73;;;;;;;;;;5011048;28;20239;-57
2023/06/03 06:07:29;;;;;;;2.90;1.70;;;;;;;;;;5011639;28;20247;-59
2023/06/03 06:09:54;;;;;;;4.82;1.80;;;;;;;;;;5014197;28;20240;-58
2023/06/03 06:12:19;;;;;;;5.88;1.83;;;;;;;;;;5014535;28;20744;-58
2023/06/03 06:14:44;;;;;;;4.43;1.45;;;;;;;;;;5015380;28;20200;-59
2023/06/03 06:17:10;;;;;;;4.82;1.80;;;;;;;;;;5014112;28;20216;-58
2023/06/03 06:19:35;;;;;;;3.13;1.55;;;;;;;;;;5015198;28;20691;-58
2023/06/03 06:22:01;;;;;;;7.85;1.60;;;;;;;;;;5014540;28;20220;-58
2023/06/03 06:24:26;;;;;;;4.40;1.52;;;;;;;;;;5014360;28;20271;-58
2023/06/03 06:26:51;;;;;;;4.95;1.60;;;;;;;;;;5012705;28;20215;-58
2023/06/03 06:29:17;;;;;;;2.65;1.60;;;;;;;;;;5008264;28;20224;-58
2023/06/03 06:31:44;;;;;;;5.28;1.50;;;;;;;;;;5011466;28;20213;-59
2023/06/03 06:34:09;;;;;;;3.78;1.70;;;;;;;;;;5013241;28;20315;-58
2023/06/03 06:36:41;;;;;;;6.30;1.60;;;;;;;;;;5014793;28;20739;-59
2023/06/03 06:39:17;;;;;;;4.25;1.55;;;;;;;;;;5010709;28;20227;-59
2023/06/03 06:41:43;;;;;;;4.28;1.70;;;;;;;;;;5013292;28;20625;-58
2023/06/03 06:44:08;;;;;;;4.50;1.48;;;;;;;;;;5014165;28;20205;-58
2023/06/03 06:46:34;;;;;;;3.95;1.38;;;;;;;;;;5014065;28;20214;-59
2023/06/03 06:48:59;;;;;;;5.43;1.50;;;;;;;;;;5013447;28;20650;-59
2023/06/03 06:51:25;;;;;;;4.60;1.63;;;;;;;;;;5014393;28;20204;-58
2023/06/03 06:53:52;;;;;;;3.30;1.40;;;;;;;;;;5012286;28;20574;-60
2023/06/03 06:56:17;;;;;;;3.63;1.35;;;;;;;;;;5014297;28;20311;-59
2023/06/03 06:58:42;;;;;;;5.45;1.30;;;;;;;;;;5013411;28;20287;-59
2023/06/03 07:01:08;;;;;;;3.50;1.30;;;;;;;;;;5014111;28;20239;-59
2023/06/03 07:03:33;;;;;;;5.60;1.48;;;;;;;;;;5014308;28;20296;-59
2023/06/03 07:05:59;;;;;;;3.17;1.30;;;;;;;;;;5013761;28;20347;-59
2023/06/03 07:08:25;;;;;;;4.85;1.40;;;;;;;;;;5013834;28;20644;-59
2023/06/03 07:10:50;;;;;;;5.50;1.60;;;;;;;;;;5014536;28;20586;-59
2023/06/03 07:13:16;;;;;;;3.20;1.33;;;;;;;;;;5012847;28;20774;-59
2023/06/03 07:15:41;;;;;;;3.85;1.42;;;;;;;;;;5014311;28;20212;-59
2023/06/03 07:18:07;;;;;;;2.60;1.33;;;;;;;;;;5013773;28;20287;-58
2023/06/03 07:20:33;;;;;;;4.72;1.33;;;;;;;;;;5011348;28;20208;-59
2023/06/03 07:22:59;;;;;;;4.88;1.27;;;;;;;;;;5014090;28;20201;-59
2023/06/03 07:25:34;;;;;;;3.83;1.20;;;;;;;;;;5012251;28;20547;-59
2023/06/03 07:27:59;;;;;;;3.65;1.48;;;;;;;;;;5013070;28;20230;-59
2023/06/03 07:30:24;;;;;;;4.47;1.60;;;;;;;;;;5013146;28;20220;-59
2023/06/03 07:32:52;;;;;;;7.10;1.52;;;;;;;;;;5013954;28;20228;-59
2023/06/03 07:35:18;;;;;;;4.82;1.25;;;;;;;;;;5011533;28;20221;-59
2023/06/03 07:37:43;;;;;;;4.40;1.40;;;;;;;;;;5013817;28;20212;-59
2023/06/03 07:40:18;;;;;;;6.22;1.50;;;;;;;;;;5013244;28;20204;-59
2023/06/03 07:42:47;;;;;;;5.05;1.35;;;;;;;;;;5012834;28;20299;-59
2023/06/03 07:45:13;;;;;;;2.83;1.20;;;;;;;;;;5012945;28;20212;-59
2023/06/03 07:47:39;;;;;;;2.55;1.20;;;;;;;;;;5013742;28;20223;-59
2023/06/03 07:50:04;;;;;;;7.47;1.42;;;;;;;;;;5012183;28;20302;-58
2023/06/03 07:52:31;;;;;;;6.60;1.50;;;;;;;;;;5012155;28;20659;-59
2023/06/03 07:54:56;;;;;;;5.47;1.38;;;;;;;;;;5011158;28;20732;-59
2023/06/03 07:57:21;;;;;;;3.88;1.10;;;;;;;;;;4993643;28;20292;-59
2023/06/03 07:59:49;;;;;;;4.57;1.30;;;;;;;;;;4993505;28;20262;-59
2023/06/03 08:02:14;;;;;;;3.50;1.35;;;;;;;;;;4992553;28;20228;-59
2023/06/03 08:04:40;;;;;;;5.15;1.20;;;;;;;;;;4976047;28;20209;-59
2023/06/03 08:07:05;;;;;;;6.05;1.33;;;;;;;;;;4993458;28;20626;-59
2023/06/03 08:09:36;;;;;;;4.68;1.10;;;;;;;;;;4992807;28;20233;-59
2023/06/03 08:12:02;;;;;;;4.00;1.10;;;;;;;;;;4993159;28;20558;-60
2023/06/03 08:14:29;;;;;;;2.42;0.90;;;;;;;;;;4997454;28;20212;-59
2023/06/03 08:16:54;;;;;;;2.60;0.90;;;;;;;;;;5012219;28;20215;-59
2023/06/03 08:19:20;;;;;;;2.55;1.27;;;;;;;;;;5012546;28;20215;-59
2023/06/03 08:21:45;;;;;;;4.00;1.10;;;;;;;;;;5012943;28;20232;-59
2023/06/03 08:24:12;;;;;;;6.70;1.33;;;;;;;;;;5011518;28;20299;-60
2023/06/03 08:26:38;;;;;;;2.63;0.80;;;;;;;;;;5023375;28;20212;-60
2023/06/03 08:29:04;;;;;;;4.57;1.00;;;;;;;;;;5011887;28;20236;-59
2023/06/03 08:31:32;;;;;;;3.67;0.88;;;;;;;;;;5011301;28;20223;-60
2023/06/03 08:33:57;;;;;;;5.75;1.00;;;;;;;;;;5012379;28;20224;-59
2023/06/03 08:36:22;;;;;;;4.93;1.15;;;;;;;;;;5012155;28;20239;-59
2023/06/03 08:38:48;;;;;;;3.60;1.17;;;;;;;;;;5011511;28;20623;-59
2023/06/03 08:41:13;;;;;;;8.05;1.20;;;;;;;;;;5011760;28;20220;-59
2023/06/03 08:43:44;;;;;;;4.93;1.30;;;;;;;;;;5012525;28;20216;-59
2023/06/03 08:46:17;;;;;;;4.70;1.40;;;;;;;;;;5010925;28;20715;-59
2023/06/03 08:49:03;;;;;;;2.85;1.00;;;;;;;;;;5011066;28;20196;-59
2023/06/03 08:51:29;;;;;;;2.72;0.93;;;;;;;;;;5009158;28;20663;-59
2023/06/03 08:53:55;;;;;;;3.08;1.00;;;;;;;;;;5010305;28;20423;-59
2023/06/03 08:56:21;;;;;;;4.57;0.82;;;;;;;;;;5010825;28;20310;-59
2023/06/03 08:59:07;;;;;;;1.85;0.90;;;;;;;;;;4999008;28;20240;-59
2023/06/03 09:01:34;;;;;;;2.20;1.05;;;;;;;;;;4997278;28;20329;-59
2023/06/03 09:04:00;;;;;;;3.10;1.00;;;;;;;;;;4992667;28;20233;-59
2023/06/03 09:06:26;;;;;;;3.45;0.93;;;;;;;;;;4990361;28;20240;-59
2023/06/03 09:08:51;;;;;;;3.78;0.93;;;;;;;;;;4992680;28;20233;-59
2023/06/03 09:11:16;;;;;;;4.57;1.85;;;;;;;;;;4990564;28;20303;-59
2023/06/03 09:13:41;;;;;;;3.45;1.70;;;;;;;;;;4991925;28;20211;-59
2023/06/03 09:16:08;;;;;;;2.95;1.15;;;;;;;;;;5009257;28;20254;-59
2023/06/03 09:18:34;;;;;;;3.83;0.98;;;;;;;;;;5010410;28;20667;-59
2023/06/03 09:20:59;;;;;;;2.35;0.80;;;;;;;;;;5010192;28;20224;-60
2023/06/03 09:23:25;;;;;;;5.68;1.33;;;;;;;;;;5011084;28;20219;-60
2023/06/03 09:25:51;;;;;;;3.50;1.23;;;;;;;;;;5008517;28;20259;-59
2023/06/03 09:28:16;;;;;;;3.20;1.02;;;;;;;;;;5008920;28;20527;-59
2023/06/03 09:30:41;;;;;;;1.50;0.70;;;;;;;;;;5010616;28;20557;-59
2023/06/03 09:33:07;;;;;;;3.10;0.70;;;;;;;;;;5011480;28;20227;-60
2023/06/03 09:35:32;;;;;;;1.98;0.95;;;;;;;;;;5011238;28;20227;-59
2023/06/03 09:37:58;;;;;;;3.83;0.95;;;;;;;;;;5011929;28;20207;-59
2023/06/03 09:40:25;;;;;;;3.45;0.82;;;;;;;;;;5010537;28;20270;-59
2023/06/03 09:42:50;;;;;;;1.45;0.80;;;;;;;;;;5012187;28;20667;-59
2023/06/03 09:45:24;;;;;;;1.45;0.80;;;;;;;;;;5015427;28;20702;-59
2023/06/03 09:47:50;;;;;;;4.75;0.90;;;;;;;;;;5014954;28;20239;-59
2023/06/03 09:50:15;;;;;;;4.20;0.90;;;;;;;;;;5015335;28;20676;-59
2023/06/03 09:52:40;;;;;;;1.83;0.68;;;;;;;;;;5014550;28;20304;-59
2023/06/03 09:55:06;;;;;;;3.80;0.80;;;;;;;;;;5014257;28;20227;-59
2023/06/03 09:57:32;;;;;;;3.22;0.80;;;;;;;;;;5015692;28;20675;-59
2023/06/03 10:00:23;;;;;;;2.53;0.68;;;;;;;;;;5015759;28;20208;-59
2023/06/03 10:02:48;;;;;;;2.78;0.70;;;;;;;;;;5012065;28;20218;-59
2023/06/03 10:05:26;;;;;;;1.67;0.70;;;;;;;;;;5015243;28;20637;-59
2023/06/03 10:07:51;;;;;;;3.00;0.63;;;;;;;;;;5015567;28;20299;-59
2023/06/03 10:10:17;;;;;;;1.05;0.60;;;;;;;;;;5014070;28;20366;-60
2023/06/03 10:12:42;;;;;;;5.32;1.02;;;;;;;;;;5015391;28;20299;-59
2023/06/03 10:15:08;;;;;;;3.50;0.80;;;;;;;;;;5014770;28;20300;-59
2023/06/03 10:17:33;;;;;;;2.13;0.95;;;;;;;;;;5014624;28;20560;-59
2023/06/03 10:19:58;;;;;;;1.38;0.80;;;;;;;;;;5015199;28;20227;-59
2023/06/03 10:22:25;;;;;;;3.25;0.95;;;;;;;;;;5014688;28;20212;-59
2023/06/03 10:24:51;;;;;;;2.80;0.70;;;;;;;;;;5014187;28;20212;-59
2023/06/03 10:27:17;;;;;;;0.88;0.60;;;;;;;;;;5013398;28;20232;-59
2023/06/03 10:29:42;;;;;;;2.17;0.80;;;;;;;;;;5014216;28;20212;-59
2023/06/03 10:32:08;;;;;;;3.13;0.80;;;;;;;;;;5014515;28;20243;-59
2023/06/03 10:34:39;;;;;;;1.23;0.80;;;;;;;;;;5014966;28;20259;-59
2023/06/03 10:37:05;;;;;;;3.10;0.82;;;;;;;;;;5013869;28;20223;-59
2023/06/03 10:39:30;;;;;;;2.38;0.93;;;;;;;;;;5014942;28;20208;-60
2023/06/03 10:41:59;;;;;;;4.20;0.80;;;;;;;;;;5014618;28;20606;-59
2023/06/03 10:44:24;;;;;;;1.55;0.57;;;;;;;;;;5013745;28;20224;-59
2023/06/03 10:46:51;;;;;;;3.10;0.73;;;;;;;;;;5014730;28;20208;-59
2023/06/03 10:49:17;;;;;;;3.08;0.80;;;;;;;;;;5014054;28;20225;-59
2023/06/03 10:51:50;;;;;;;2.95;0.70;;;;;;;;;;5012576;28;20239;-59
2023/06/03 10:54:15;;;;;;;2.85;0.80;;;;;;;;;;5012588;28;20212;-59
2023/06/03 10:56:47;;;;;;;4.85;0.80;;;;;;;;;;5013816;28;20215;-60
2023/06/03 10:59:15;;;;;;;2.38;0.80;;;;;;;;;;5012167;28;20687;-60
2023/06/03 11:02:07;;;;;;;1.77;0.70;;;;;;;;;;5012987;28;20270;-60
2023/06/03 11:04:35;;;;;;;2.00;0.80;;;;;;;;;;5008776;28;20212;-60
2023/06/03 11:07:02;;;;;;;1.60;0.90;;;;;;;;;;5013215;28;20355;-59
2023/06/03 11:09:37;;;;;;;10.02;0.90;;;;;;;;;;5014080;28;20228;-60
2023/06/03 11:12:09;;;;;;;2.70;0.60;;;;;;;;;;5013043;28;20671;-60
2023/06/03 11:14:40;;;;;;;1.95;0.73;;;;;;;;;;5012910;28;20219;-60
2023/06/03 11:17:05;;;;;;;5.35;0.88;;;;;;;;;;5013415;28;20213;-60
2023/06/03 11:19:34;;;;;;;2.25;0.80;;;;;;;;;;5011116;28;20212;-60
2023/06/03 11:22:00;;;;;;;2.08;0.80;;;;;;;;;;5011613;28;20208;-59
2023/06/03 11:24:37;;;;;;;4.10;1.13;;;;;;;;;;5011631;28;20367;-59
2023/06/03 11:27:19;;;;;;;3.75;0.93;;;;;;;;;;5008556;28;20295;-59
2023/06/03 11:29:51;;;;;;;3.22;0.80;;;;;;;;;;5009146;28;20604;-59
2023/06/03 11:32:24;;;;;;;4.00;1.00;;;;;;;;;;5011347;28;20822;-59
2023/06/03 11:34:49;;;;;;;6.15;1.27;;;;;;;;;;5011559;28;20259;-59
2023/06/03 11:37:17;;;;;;;3.83;1.00;;;;;;;;;;5012291;28;20304;-59
2023/06/03 11:40:02;;;;;;;3.83;0.90;;;;;;;;;;5013720;28;20384;-60
2023/06/03 11:42:28;;;;;;;3.72;0.90;;;;;;;;;;5013166;28;20263;-60
2023/06/03 11:44:53;;;;;;;2.28;0.80;;;;;;;;;;5013706;28;20303;-60
2023/06/03 11:47:18;;;;;;;4.93;1.08;;;;;;;;;;5012554;28;20640;-60
2023/06/03 11:49:44;;;;;;;3.33;1.20;;;;;;;;;;5013603;28;20672;-60
2023/06/03 11:52:09;;;;;;;2.45;0.88;;;;;;;;;;5012795;28;20247;-60
2023/06/03 11:54:35;;;;;;;2.65;0.82;;;;;;;;;;5012949;28;20485;-60
2023/06/03 11:57:03;;;;;;;1.67;0.63;;;;;;;;;;5012668;28;20616;-60
2023/06/03 11:59:30;;;;;;;3.90;0.80;;;;;;;;;;5013356;28;20235;-60
2023/06/03 12:01:59;;;;;;;1.45;0.80;;;;;;;;;;5028176;28;20212;-60
2023/06/03 12:04:24;;;;;;;2.92;1.00;;;;;;;;;;5032566;28;20223;-60
2023/06/03 12:06:49;;;;;;;3.40;0.90;;;;;;;;;;5032944;28;20211;-60
2023/06/03 12:09:16;;;;;;;1.67;0.70;;;;;;;;;;5031805;28;20606;-60
2023/06/03 12:11:43;;;;;;;4.78;1.00;;;;;;;;;;5032575;28;20216;-60
2023/06/03 12:14:08;;;;;;;3.10;1.05;;;;;;;;;;5030781;28;20219;-60
2023/06/03 12:16:34;;;;;;;4.25;0.77;;;;;;;;;;5012206;28;20224;-60
2023/06/03 12:19:01;;;;;;;3.75;1.05;;;;;;;;;;5012826;28;20386;-60
2023/06/03 12:21:26;;;;;;;3.28;0.90;;;;;;;;;;5012623;28;20612;-60
2023/06/03 12:23:51;;;;;;;2.65;0.80;;;;;;;;;;5012160;28;20699;-60
2023/06/03 12:26:17;;;;;;;4.15;0.80;;;;;;;;;;5012592;28;20213;-60
2023/06/03 12:28:42;;;;;;;3.67;1.10;;;;;;;;;;5012401;28;20224;-60
2023/06/03 12:31:14;;;;;;;2.75;0.90;;;;;;;;;;5009756;28;20252;-60
2023/06/03 12:33:43;;;;;;;4.97;0.90;;;;;;;;;;4992479;28;20608;-60
2023/06/03 12:36:09;;;;;;;3.97;0.98;;;;;;;;;;4981964;28;20251;-60
2023/06/03 12:38:52;;;;;;;2.40;0.80;;;;;;;;;;4995388;28;20296;-60
2023/06/03 12:41:18;;;;;;;3.40;0.90;;;;;;;;;;4998245;28;20279;-60
2023/06/03 12:43:45;;;;;;;5.35;1.08;;;;;;;;;;5004963;28;20204;-60
2023/06/03 12:46:16;;;;;;;2.25;0.88;;;;;;;;;;5020771;28;20294;-60
2023/06/03 12:48:42;;;;;;;1.77;0.70;;;;;;;;;;5006173;28;20263;-60
2023/06/03 12:51:23;;;;;;;3.67;1.83;;;;;;;;;;4988824;28;20221;-60
2023/06/03 12:53:48;;;;;;;2.55;0.82;;;;;;;;;;4988557;28;20224;-60
2023/06/03 12:56:13;;;;;;;3.58;0.85;;;;;;;;;;4980859;28;20217;-60
2023/06/03 12:58:39;;;;;;;2.28;0.70;;;;;;;;;;4978193;28;20778;-60
2023/06/03 13:01:04;;;;;;;3.25;0.82;;;;;;;;;;4979513;28;20216;-60
2023/06/03 13:03:30;;;;;;;2.92;0.80;;;;;;;;;;4984505;28;20220;-60
2023/06/03 13:05:55;;;;;;;3.47;0.60;;;;;;;;;;4986039;28;20228;-60
2023/06/03 13:08:20;;;;;;;3.45;0.80;;;;;;;;;;5003589;28;20319;-60
2023/06/03 13:10:46;;;;;;;3.45;0.85;;;;;;;;;;5006028;28;20338;-60
2023/06/03 13:13:11;;;;;;;2.08;0.60;;;;;;;;;;5004380;28;20216;-60
2023/06/03 13:15:36;;;;;;;2.63;0.60;;;;;;;;;;4993030;28;20403;-60
2023/06/03 13:18:02;;;;;;;2.95;0.80;;;;;;;;;;4998051;28;20214;-60
2023/06/03 13:20:28;;;;;;;2.33;0.77;;;;;;;;;;4977434;28;20535;-60
2023/06/03 13:22:53;;;;;;;3.20;0.60;;;;;;;;;;4979292;28;20233;-60
2023/06/03 13:25:18;;;;;;;3.83;0.70;;;;;;;;;;4981170;28;20570;-59
2023/06/03 13:27:44;;;;;;;3.38;0.90;;;;;;;;;;4985902;28;20229;-60
2023/06/03 13:30:11;;;;;;;2.85;0.82;;;;;;;;;;5004843;28;20606;-59
2023/06/03 13:32:37;;;;;;;2.17;0.90;;;;;;;;;;5008600;28;20252;-60
2023/06/03 13:35:02;;;;;;;2.03;0.52;;;;;;;;;;5011236;28;20224;-59
2023/06/03 13:37:27;;;;;;;2.35;0.70;;;;;;;;;;5011716;28;20236;-60
2023/06/03 13:39:53;;;;;;;3.72;0.82;;;;;;;;;;4991026;28;20288;-60
2023/06/03 13:42:19;;;;;;;6.68;0.82;;;;;;;;;;4991705;28;20228;-60
2023/06/03 13:44:45;;;;;;;3.17;0.57;;;;;;;;;;4992389;28;20228;-60
2023/06/03 13:47:10;;;;;;;1.92;0.60;;;;;;;;;;4991283;28;20585;-59
2023/06/03 13:49:35;;;;;;;2.45;0.60;;;;;;;;;;4992104;28;20216;-60
2023/06/03 13:52:01;;;;;;;3.22;0.57;;;;;;;;;;4995255;28;20204;-60
2023/06/03 13:54:26;;;;;;;1.50;0.70;;;;;;;;;;5010651;28;20212;-60
2023/06/03 13:56:53;;;;;;;4.20;0.70;;;;;;;;;;5011930;28;20678;-60
2023/06/03 13:59:20;;;;;;;4.38;0.88;;;;;;;;;;5011382;28;20212;-60
2023/06/03 14:01:45;;;;;;;4.47;0.82;;;;;;;;;;5011175;28;20212;-60
2023/06/03 14:04:11;;;;;;;3.30;1.08;;;;;;;;;;5011116;28;20227;-59
2023/06/03 14:06:36;;;;;;;2.53;0.68;;;;;;;;;;5010515;28;20208;-59
2023/06/03 14:09:03;;;;;;;4.05;0.80;;;;;;;;;;5010224;28;20200;-60
2023/06/03 14:11:28;;;;;;;3.42;0.70;;;;;;;;;;5011982;28;20205;-60
2023/06/03 14:13:53;;;;;;;2.35;0.50;;;;;;;;;;5011476;28;20212;-60
2023/06/03 14:16:22;;;;;;;1.48;0.60;;;;;;;;;;5010694;28;20640;-59
2023/06/03 14:18:47;;;;;;;4.85;0.70;;;;;;;;;;5011288;28;20209;-60
2023/06/03 14:21:12;;;;;;;1.83;0.65;;;;;;;;;;5011232;28;20223;-60
2023/06/03 14:23:38;;;;;;;3.00;0.80;;;;;;;;;;5010720;28;20204;-59
2023/06/03 14:26:03;;;;;;;3.28;1.10;;;;;;;;;;5011268;28;20290;-60
2023/06/03 14:28:28;;;;;;;1.48;0.73;;;;;;;;;;5011749;28;20232;-59
2023/06/03 14:30:54;;;;;;;3.35;0.80;;;;;;;;;;5013916;28;20224;-60
2023/06/03 14:33:21;;;;;;;1.45;0.73;;;;;;;;;;5009749;28;20213;-60
2023/06/03 14:35:46;;;;;;;5.40;0.85;;;;;;;;;;5012016;28;20209;-60
2023/06/03 14:38:11;;;;;;;2.25;0.90;;;;;;;;;;5014665;28;20322;-60
2023/06/03 14:40:37;;;;;;;3.42;0.70;;;;;;;;;;5010666;28;20205;-60